To NAV CANADA Home Page Login to a new session Search on AWWS site Feedback and Comments Disclaimer Vers la page française équivalente Tips FAQ What's new on the site To the Forecasts and Observations / NOTAM section To "File a Flight Plan" website Publications and other links Update of the User's profile FIC Telephone Numbers My Weather Data Folder Route Weather Data Regional Weather Data Local Weather Data To the Forecasts and Observations / NOTAM section
Request Generated 07/05/2015 at 12:49:23 UTC . Weather information available at that time is displayed.

METAR/TAF

THUNDER BAY/ON    

METAR CYQT 051200Z 08006KT 12SM OVC270 14/12 A2990 RMK CI8 HZ SLP127=
METAR CYQT 051100Z 01003KT 330V040 12SM FEW270 12/12 A2991 RMK CI2 HZ
SLP131=
METAR CYQT 051000Z 09007KT 15SM SCT270 12/11 A2989 RMK CI3 HZ SLP125=

TAF CYQT 050738Z 0508/0520 VRB03KT P6SM SCT250 TEMPO 0509/0514 BKN010
BKN250
FM051600 17010G20KT P6SM OVC220
RMK NXT FCST BY 051400Z=
Your time UTC time
Weather data provided by Environment Canada and NAV CANADA